createdAt,value
2022-09-05T00:00:06.275Z,11.57
2022-09-05T00:03:08.741Z,11.60
2022-09-05T00:06:04.852Z,11.82
2022-09-05T00:08:52.813Z,11.25
2022-09-05T00:11:42.698Z,11.98
2022-09-05T00:15:16.731Z,12.52
2022-09-05T00:18:28.418Z,11.23
2022-09-05T00:24:18.868Z,10.63
2022-09-05T00:24:28.080Z,10.55
2022-09-05T00:31:06.830Z,10.27
2022-09-05T00:33:18.023Z,11.10
2022-09-05T00:36:03.145Z,10.82
2022-09-05T00:38:36.476Z,10.75
2022-09-05T00:41:12.515Z,9.57
2022-09-05T00:43:44.855Z,10.18
2022-09-05T00:46:19.109Z,10.13
2022-09-05T00:48:54.636Z,11.13
2022-09-05T00:51:35.378Z,10.88
2022-09-05T00:54:40.348Z,10.10
2022-09-05T00:57:39.857Z,9.07
2022-09-05T01:00:21.304Z,9.00
2022-09-05T01:03:10.245Z,9.05
2022-09-05T01:05:55.924Z,9.43
2022-09-05T01:08:56.026Z,9.18
2022-09-05T01:11:50.019Z,9.55
2022-09-05T01:14:40.740Z,12.05
2022-09-05T01:17:26.525Z,10.05
2022-09-05T01:20:19.371Z,10.02
2022-09-05T01:23:11.001Z,13.05
2022-09-05T01:26:01.061Z,12.75
2022-09-05T01:29:17.126Z,12.55
2022-09-05T01:31:38.941Z,13.43
2022-09-05T01:34:29.643Z,13.18
2022-09-05T01:37:24.811Z,11.55
2022-09-05T01:40:16.442Z,10.93
2022-09-05T01:43:17.936Z,9.30
2022-09-05T01:45:53.308Z,7.95
2022-09-05T01:48:34.832Z,7.68
2022-09-05T01:51:28.909Z,8.52
2022-09-05T01:54:21.191Z,7.93
2022-09-05T01:57:08.185Z,7.30
2022-09-05T01:59:49.186Z,6.55
2022-09-05T02:02:35.575Z,6.88
2022-09-05T02:05:48.621Z,6.63
2022-09-05T02:08:57.119Z,8.77
2022-09-05T02:11:45.286Z,9.63
2022-09-05T02:14:34.212Z,9.18
2022-09-05T02:17:49.492Z,9.98
2022-09-05T02:20:23.838Z,9.80
2022-09-05T02:23:27.400Z,9.68
2022-09-05T02:26:04.243Z,10.30
2022-09-05T02:28:45.538Z,11.05
2022-09-05T02:31:22.440Z,9.95
2022-09-05T02:34:02.353Z,9.52
2022-09-05T02:36:41.354Z,9.35
2022-09-05T02:45:10.354Z,10.40
2022-09-05T02:45:19.649Z,10.43
2022-09-05T02:45:26.978Z,11.20
2022-09-05T02:48:15.537Z,10.38
2022-09-05T02:57:26.302Z,10.38
2022-09-05T02:57:36.373Z,10.48
2022-09-05T02:57:40.977Z,9.65
2022-09-05T03:00:12.085Z,9.55
2022-09-05T03:03:05.965Z,9.25
2022-09-05T03:05:40.410Z,9.10
2022-09-05T03:08:31.468Z,8.10
2022-09-05T03:11:53.641Z,7.70
2022-09-05T03:15:22.218Z,7.30
2022-09-05T03:18:29.284Z,7.28
2022-09-05T03:21:44.729Z,5.90
2022-09-05T03:25:00.453Z,5.55
2022-09-05T03:28:21.258Z,5.85
2022-09-05T03:31:22.078Z,6.68
2022-09-05T03:34:27.413Z,7.05
2022-09-05T03:37:34.739Z,6.35
2022-09-05T03:40:36.713Z,6.40
2022-09-05T03:43:52.148Z,5.88
2022-09-05T03:46:49.930Z,6.00
2022-09-05T03:52:23.386Z,7.20
2022-09-05T03:57:06.089Z,8.02
2022-09-05T03:57:25.710Z,7.47
2022-09-05T03:59:47.550Z,9.40
2022-09-05T04:05:37.998Z,8.95
2022-09-05T04:08:08.181Z,7.07
2022-09-05T04:08:42.018Z,7.60
2022-09-05T04:11:12.712Z,7.47
2022-09-05T04:13:50.091Z,6.53
2022-09-05T04:16:23.646Z,6.53
2022-09-05T04:18:57.831Z,7.28
2022-09-05T04:21:32.776Z,6.53
2022-09-05T04:24:09.177Z,6.15
2022-09-05T04:27:13.825Z,6.82
2022-09-05T04:29:59.310Z,6.60
2022-09-05T04:32:46.774Z,6.47
2022-09-05T04:35:38.839Z,6.22
2022-09-05T04:38:14.845Z,7.00
2022-09-05T04:40:51.744Z,6.75
2022-09-05T04:43:32.112Z,6.78
2022-09-05T04:46:18.845Z,6.40
2022-09-05T04:49:02.048Z,5.78
2022-09-05T04:52:03.901Z,5.90
2022-09-05T04:54:42.438Z,6.72
2022-09-05T04:57:22.921Z,6.07
2022-09-05T05:04:00.967Z,6.63
2022-09-05T05:06:08.227Z,7.05
2022-09-05T05:06:10.848Z,6.55
2022-09-05T05:08:57.014Z,7.90
2022-09-05T05:16:18.628Z,9.00
2022-09-05T05:18:10.906Z,7.20
2022-09-05T05:18:11.816Z,6.50
2022-09-05T05:20:42.072Z,6.82
2022-09-05T05:23:16.370Z,6.82
2022-09-05T05:25:53.934Z,7.20
2022-09-05T05:31:09.667Z,8.32
2022-09-05T05:33:42.131Z,10.10
2022-09-05T05:36:20.266Z,11.52
2022-09-05T05:38:57.958Z,11.25
2022-09-05T05:41:37.184Z,9.25
2022-09-05T05:44:17.277Z,11.75
2022-09-05T05:46:55.187Z,16.95
2022-09-05T05:49:40.635Z,16.60
2022-09-05T05:52:47.284Z,14.70
2022-09-05T05:55:51.936Z,14.23
2022-09-05T05:58:53.522Z,11.82
2022-09-05T06:02:04.300Z,14.88
2022-09-05T06:05:35.964Z,15.30
2022-09-05T06:11:04.616Z,15.50
2022-09-05T06:15:01.624Z,13.60
2022-09-05T06:16:06.278Z,11.70
2022-09-05T06:19:39.147Z,11.57
2022-09-05T06:23:38.903Z,11.07
2022-09-05T06:26:44.765Z,9.57
2022-09-05T06:29:34.518Z,8.90
2022-09-05T06:32:56.921Z,8.07
2022-09-05T06:35:42.227Z,8.00
2022-09-05T06:38:42.755Z,7.38
2022-09-05T06:41:29.663Z,7.35
2022-09-05T06:44:53.000Z,7.72
2022-09-05T06:47:34.008Z,6.88
2022-09-05T06:50:26.979Z,7.43
2022-09-05T06:53:39.598Z,7.00
2022-09-05T06:56:28.167Z,7.25
2022-09-05T07:00:22.400Z,7.18
2022-09-05T07:03:24.549Z,7.18
2022-09-05T07:06:00.229Z,7.57
2022-09-05T07:08:48.242Z,7.15
2022-09-05T07:11:22.160Z,7.00
2022-09-05T07:14:03.872Z,7.75
2022-09-05T07:16:49.928Z,7.65
2022-09-05T07:19:27.162Z,7.18
2022-09-05T07:25:00.477Z,7.15
2022-09-05T07:27:42.037Z,7.30
2022-09-05T07:30:28.502Z,6.82
2022-09-05T07:33:00.049Z,6.80
2022-09-05T07:35:41.525Z,7.72
2022-09-05T07:38:18.671Z,8.13
2022-09-05T07:41:01.936Z,7.63
2022-09-05T07:43:39.589Z,7.95
2022-09-05T07:46:14.662Z,7.57
2022-09-05T07:48:47.549Z,7.38
2022-09-05T07:56:46.340Z,6.97
2022-09-05T07:57:03.720Z,6.97
2022-09-05T07:57:30.218Z,7.25
2022-09-05T08:00:26.682Z,8.77
2022-09-05T08:03:02.195Z,8.30
2022-09-05T08:05:45.032Z,9.32
2022-09-05T08:08:18.585Z,8.90
2022-09-05T08:11:22.320Z,8.43
2022-09-05T08:14:32.719Z,9.05
2022-09-05T08:16:45.985Z,9.32
2022-09-05T08:19:50.132Z,7.32
2022-09-05T08:22:25.615Z,8.15
2022-09-05T08:25:14.391Z,8.30
2022-09-05T08:28:02.921Z,7.95
2022-09-05T08:30:41.454Z,7.97
2022-09-05T08:33:19.092Z,7.88
2022-09-05T08:35:59.363Z,7.32
2022-09-05T08:38:35.937Z,6.47
2022-09-05T08:41:19.007Z,7.43
2022-09-05T08:46:36.135Z,7.03
2022-09-05T08:47:04.239Z,6.70
2022-09-05T08:49:57.957Z,6.60
2022-09-05T08:52:39.024Z,6.20
2022-09-05T08:55:20.077Z,5.57
2022-09-05T08:58:06.466Z,5.93
2022-09-05T09:00:50.953Z,6.25
2022-09-05T09:03:35.672Z,6.53
2022-09-05T09:06:22.283Z,6.63
2022-09-05T09:09:13.215Z,6.20
2022-09-05T09:11:49.752Z,6.80
2022-09-05T09:14:36.900Z,6.83
2022-09-05T09:17:22.916Z,6.33
2022-09-05T09:20:17.440Z,6.25
2022-09-05T09:22:59.304Z,6.82
2022-09-05T09:25:34.187Z,6.10
2022-09-05T09:28:52.013Z,5.72
2022-09-05T09:31:50.270Z,6.00
2022-09-05T09:34:50.581Z,7.00
2022-09-05T09:38:13.703Z,6.57
2022-09-05T09:41:33.981Z,6.60
2022-09-05T09:45:22.774Z,6.13
2022-09-05T09:48:46.498Z,7.82
2022-09-05T09:51:39.285Z,8.27
2022-09-05T09:54:40.316Z,6.90
2022-09-05T09:57:47.067Z,7.43
2022-09-05T10:00:21.452Z,7.28
2022-09-05T10:07:47.922Z,8.00
2022-09-05T10:10:46.163Z,7.05
2022-09-05T10:10:58.216Z,6.95
2022-09-05T10:13:36.090Z,8.27
2022-09-05T10:16:45.594Z,7.00
2022-09-05T10:20:13.316Z,7.47
2022-09-05T10:23:21.472Z,7.65
2022-09-05T10:26:43.421Z,7.27
2022-09-05T10:29:46.998Z,6.65
2022-09-05T10:35:07.489Z,7.65
2022-09-05T10:35:23.579Z,6.35
2022-09-05T10:38:10.150Z,6.47
2022-09-05T10:41:09.734Z,7.57
2022-09-05T10:43:42.944Z,7.10
2022-09-05T10:49:29.997Z,7.03
2022-09-05T10:52:13.141Z,6.50
2022-09-05T10:55:18.771Z,6.97
2022-09-05T10:58:01.043Z,6.47
2022-09-05T11:02:22.647Z,5.88
2022-09-05T11:03:54.450Z,6.82
2022-09-05T11:06:50.945Z,6.22
2022-09-05T11:09:40.917Z,6.25
2022-09-05T11:12:28.591Z,6.57
2022-09-05T11:15:02.712Z,6.78
2022-09-05T11:17:43.351Z,6.65
2022-09-05T11:20:45.350Z,7.05
2022-09-05T11:23:22.439Z,6.50
2022-09-05T11:26:02.155Z,6.70
2022-09-05T11:28:57.405Z,6.55
2022-09-05T11:32:22.450Z,7.22
2022-09-05T11:39:48.632Z,6.32
2022-09-05T11:40:08.556Z,6.63
2022-09-05T11:42:33.274Z,6.95
2022-09-05T11:45:30.957Z,7.40
2022-09-05T11:48:46.571Z,7.18
2022-09-05T11:52:04.212Z,7.10
2022-09-05T11:55:44.226Z,6.70
2022-09-05T11:59:06.885Z,6.55
2022-09-05T12:01:51.802Z,7.18
2022-09-05T12:05:47.687Z,7.40
2022-09-05T12:08:00.392Z,7.25
2022-09-05T12:10:48.752Z,6.57
2022-09-05T12:13:42.551Z,7.13
2022-09-05T12:16:33.524Z,7.90
2022-09-05T12:19:22.766Z,7.30
2022-09-05T12:22:18.592Z,7.75
2022-09-05T12:26:32.155Z,8.05
2022-09-05T12:29:27.476Z,7.07
2022-09-05T12:32:30.865Z,8.43
2022-09-05T12:36:06.729Z,7.70
2022-09-05T12:40:15.854Z,7.45
2022-09-05T12:41:38.266Z,7.15
2022-09-05T12:44:00.679Z,6.93
2022-09-05T12:45:59.858Z,7.07
2022-09-05T12:53:51.090Z,7.32
2022-09-05T12:57:27.702Z,6.78
2022-09-05T13:03:05.044Z,7.38
2022-09-05T13:03:08.222Z,6.82
2022-09-05T13:05:18.483Z,7.20
2022-09-05T13:07:57.135Z,7.40
2022-09-05T13:12:07.409Z,7.60
2022-09-05T13:14:57.072Z,7.18
2022-09-05T13:16:26.182Z,6.43
2022-09-05T13:19:07.644Z,6.75
2022-09-05T13:21:52.807Z,6.53
2022-09-05T13:24:30.754Z,6.55
2022-09-05T13:27:08.721Z,5.97
2022-09-05T13:34:11.152Z,5.93
2022-09-05T13:37:55.595Z,6.20
2022-09-05T13:38:14.910Z,6.45
2022-09-05T13:39:03.513Z,6.70
2022-09-05T13:41:43.165Z,6.35
2022-09-05T13:44:25.558Z,6.22
2022-09-05T13:47:02.083Z,5.72
2022-09-05T13:49:44.999Z,5.80
2022-09-05T13:52:29.105Z,6.20
2022-09-05T13:55:18.693Z,6.13
2022-09-05T13:57:54.037Z,6.30
2022-09-05T14:01:18.985Z,5.88
2022-09-05T14:05:08.276Z,6.43
2022-09-05T14:08:21.179Z,7.10
2022-09-05T14:11:38.161Z,6.70
2022-09-05T14:17:51.581Z,6.45
2022-09-05T14:20:43.161Z,6.05
2022-09-05T14:23:15.878Z,5.53
2022-09-05T14:25:50.369Z,5.68
2022-09-05T14:28:29.085Z,5.63
2022-09-05T14:33:16.756Z,5.43
2022-09-05T14:37:40.491Z,5.25
2022-09-05T14:37:41.132Z,5.47
2022-09-05T14:41:28.338Z,6.18
2022-09-05T14:44:42.409Z,6.55
2022-09-05T14:47:47.470Z,6.78
2022-09-05T14:51:05.694Z,6.55
2022-09-05T14:57:23.513Z,5.50
2022-09-05T15:02:48.795Z,5.47
2022-09-05T15:02:53.849Z,6.03
2022-09-05T15:05:40.684Z,6.35
2022-09-05T15:08:14.882Z,5.88
2022-09-05T15:12:24.504Z,6.47
2022-09-05T15:14:04.012Z,5.93
2022-09-05T15:16:38.637Z,6.60
2022-09-05T15:19:11.230Z,6.88
2022-09-05T15:21:41.575Z,6.40
2022-09-05T15:24:21.324Z,6.80
2022-09-05T15:26:54.012Z,6.22
2022-09-05T15:29:28.516Z,5.57
2022-09-05T15:32:16.561Z,6.28
2022-09-05T15:34:45.821Z,6.57
2022-09-05T15:37:30.362Z,6.30
2022-09-05T15:40:07.767Z,5.47
2022-09-05T15:42:55.667Z,5.95
2022-09-05T15:45:29.786Z,5.70
2022-09-05T15:48:08.817Z,5.47
2022-09-05T15:50:45.516Z,5.22
2022-09-05T15:53:26.694Z,5.53
2022-09-05T15:56:01.065Z,5.18
2022-09-05T15:58:52.478Z,4.90
2022-09-05T16:01:58.261Z,5.25
2022-09-05T16:10:28.505Z,5.32
2022-09-05T16:10:35.690Z,5.57
2022-09-05T16:10:57.869Z,5.00
2022-09-05T16:13:14.249Z,5.30
2022-09-05T16:23:15.376Z,5.75
2022-09-05T16:23:26.194Z,5.78
2022-09-05T16:23:37.548Z,5.87
2022-09-05T16:24:58.523Z,5.88
2022-09-05T16:27:46.557Z,6.03
2022-09-05T16:30:24.212Z,6.22
2022-09-05T16:33:03.758Z,6.57
2022-09-05T16:35:39.883Z,6.55
2022-09-05T16:38:33.171Z,6.07
2022-09-05T16:41:19.023Z,6.93
2022-09-05T16:43:56.783Z,7.13
2022-09-05T16:46:35.496Z,7.40
2022-09-05T16:49:12.443Z,7.55
2022-09-05T16:51:50.297Z,7.68
2022-09-05T16:54:27.420Z,7.88
2022-09-05T16:57:01.374Z,7.88
2022-09-05T16:59:33.499Z,8.52
2022-09-05T17:02:09.658Z,8.52
2022-09-05T17:05:03.081Z,8.20
2022-09-05T17:07:54.019Z,9.15
2022-09-05T17:10:28.343Z,9.00
2022-09-05T17:12:57.821Z,9.93
2022-09-05T17:15:32.730Z,9.95
2022-09-05T17:18:22.182Z,9.98
2022-09-05T17:20:58.893Z,10.55
2022-09-05T17:28:56.034Z,11.15
2022-09-05T17:29:26.025Z,11.30
2022-09-05T17:31:26.618Z,11.82
2022-09-05T17:32:47.478Z,12.60
2022-09-05T17:35:42.442Z,12.90
2022-09-05T17:38:50.655Z,12.25
2022-09-05T17:42:00.010Z,13.48
2022-09-05T17:44:33.614Z,13.82
2022-09-05T17:47:15.512Z,14.55
2022-09-05T17:49:46.712Z,13.73
2022-09-05T17:52:23.616Z,12.75
2022-09-05T17:54:57.956Z,11.85
2022-09-05T17:57:39.361Z,13.15
2022-09-05T18:01:00.351Z,13.25
2022-09-05T18:04:16.192Z,12.88
2022-09-05T18:06:59.869Z,13.10
2022-09-05T18:10:14.838Z,13.05
2022-09-05T18:13:12.599Z,12.07
2022-09-05T18:16:12.615Z,13.55
2022-09-05T18:19:32.721Z,14.02
2022-09-05T18:21:49.959Z,12.85
2022-09-05T18:24:33.448Z,13.57
2022-09-05T18:27:36.451Z,13.30
2022-09-05T18:33:55.758Z,14.00
2022-09-05T18:36:36.591Z,14.23
2022-09-05T18:39:43.375Z,13.23
2022-09-05T18:42:34.434Z,12.80
2022-09-05T18:45:12.978Z,13.52
2022-09-05T18:47:59.192Z,14.30
2022-09-05T18:50:32.919Z,17.33
2022-09-05T18:53:10.054Z,17.38
2022-09-05T18:56:13.986Z,16.00
2022-09-05T18:58:58.078Z,19.13
2022-09-05T19:01:50.307Z,17.83
2022-09-05T19:04:40.300Z,17.40
2022-09-05T19:07:29.569Z,16.88
2022-09-05T19:10:13.193Z,17.38
2022-09-05T19:13:02.009Z,16.42
2022-09-05T19:15:37.265Z,17.83
2022-09-05T19:18:26.301Z,18.48
2022-09-05T19:21:16.804Z,18.67
2022-09-05T19:23:53.770Z,21.65
2022-09-05T19:26:25.001Z,20.38
2022-09-05T19:36:46.846Z,19.83
2022-09-05T19:36:56.454Z,20.52
2022-09-05T19:37:07.574Z,19.73
2022-09-05T19:37:42.807Z,21.23
2022-09-05T19:47:26.278Z,21.17
2022-09-05T19:47:44.061Z,20.13
2022-09-05T19:47:51.474Z,19.13
2022-09-05T19:49:08.813Z,20.95
2022-09-05T19:51:41.163Z,19.60
2022-09-05T19:54:26.602Z,19.73
2022-09-05T19:57:01.088Z,24.20
2022-09-05T19:59:38.364Z,18.75
2022-09-05T20:04:53.143Z,19.02
2022-09-05T20:07:25.040Z,20.50
2022-09-05T20:09:57.204Z,18.25
2022-09-05T20:12:31.928Z,20.70
2022-09-05T20:15:22.927Z,20.52
2022-09-05T20:17:54.821Z,20.10
2022-09-05T20:20:27.996Z,19.63
2022-09-05T20:23:00.565Z,20.05
2022-09-05T20:25:36.784Z,20.58
2022-09-05T20:28:10.350Z,20.60
2022-09-05T20:30:44.476Z,20.13
2022-09-05T20:33:23.172Z,20.38
2022-09-05T20:43:07.949Z,21.55
2022-09-05T20:43:16.679Z,20.80
2022-09-05T20:43:18.011Z,20.85
2022-09-05T20:44:41.342Z,22.40
2022-09-05T20:54:07.910Z,21.85
2022-09-05T20:54:17.177Z,22.48
2022-09-05T20:54:27.791Z,22.15
2022-09-05T20:56:04.292Z,23.27
2022-09-05T20:58:36.248Z,21.88
2022-09-05T21:01:21.291Z,21.98
2022-09-05T21:03:58.029Z,20.15
2022-09-05T21:06:33.650Z,18.95
2022-09-05T21:09:24.386Z,18.85
2022-09-05T21:11:58.700Z,19.10
2022-09-05T21:14:30.375Z,22.83
2022-09-05T21:17:14.714Z,22.98
2022-09-05T21:19:53.804Z,23.75
2022-09-05T21:22:29.393Z,22.67
2022-09-05T21:25:25.085Z,27.67
2022-09-05T21:28:36.466Z,28.98
2022-09-05T21:31:12.906Z,31.90
2022-09-05T21:33:46.393Z,29.10
2022-09-05T21:36:17.089Z,27.40
2022-09-05T21:38:46.685Z,26.20
2022-09-05T21:41:20.337Z,25.98
2022-09-05T21:47:37.457Z,26.05
2022-09-05T21:47:39.559Z,27.77
2022-09-05T21:49:34.913Z,24.02
2022-09-05T21:52:07.259Z,25.20
2022-09-05T21:59:20.740Z,27.48
2022-09-05T21:59:29.147Z,28.65
2022-09-05T22:00:24.470Z,25.98
2022-09-05T22:02:53.848Z,24.23
2022-09-05T22:05:25.410Z,25.02
2022-09-05T22:07:55.660Z,25.13
2022-09-05T22:10:41.589Z,28.50
2022-09-05T22:13:17.480Z,25.17
2022-09-05T22:15:48.657Z,24.33
2022-09-05T22:18:18.385Z,29.58
2022-09-05T22:21:31.864Z,28.85
2022-09-05T22:23:44.457Z,28.25
2022-09-05T22:26:15.302Z,28.60
2022-09-05T22:28:49.106Z,29.13
2022-09-05T22:31:18.940Z,25.98
2022-09-05T22:33:50.997Z,27.00
2022-09-05T22:36:20.718Z,26.25
2022-09-05T22:38:50.009Z,26.98
2022-09-05T22:41:19.391Z,26.33
2022-09-05T22:44:01.238Z,30.02
2022-09-05T22:46:31.016Z,32.05
2022-09-05T22:49:00.306Z,32.28
2022-09-05T22:51:29.485Z,25.80
2022-09-05T22:54:01.585Z,25.30
2022-09-05T22:56:32.627Z,22.92
2022-09-05T22:59:04.641Z,23.45
2022-09-05T23:01:34.512Z,22.02
2022-09-05T23:04:04.666Z,21.83
2022-09-05T23:06:33.908Z,22.65
2022-09-05T23:09:03.117Z,21.58
2022-09-05T23:11:32.335Z,20.65
2022-09-05T23:14:02.996Z,23.30
2022-09-05T23:16:32.151Z,25.55
2022-09-05T23:19:01.542Z,27.27
2022-09-05T23:21:30.878Z,32.33
2022-09-05T23:24:00.051Z,33.45
2022-09-05T23:26:29.291Z,32.97
2022-09-05T23:28:58.557Z,33.35
2022-09-05T23:31:29.276Z,29.92
2022-09-05T23:33:58.506Z,27.10
2022-09-05T23:36:27.646Z,26.25
2022-09-05T23:38:56.868Z,25.52
2022-09-05T23:41:26.132Z,26.73
2022-09-05T23:43:55.259Z,26.05
2022-09-05T23:46:24.428Z,24.05
2022-09-05T23:48:55.015Z,25.42
2022-09-05T23:51:24.177Z,23.85
2022-09-05T23:53:53.276Z,24.10
2022-09-05T23:56:22.458Z,24.88
2022-09-05T23:58:51.609Z,24.10
